Time;durP1;ratioP1;P1;durP2;ratioP2;P2;SDS_P1;SDS_P2;PMS_P1;PMS_P2;Temp;Humidity;BMP_temperature;BMP_pressure;BME280_temperature;BME280_humidity;BME280_pressure;Samples;Min_cycle;Max_cycle;Signal;HPM_P1;HPM_P2
2022/05/06 00:01:49;;;;;;;;;30.00;19.00;;;;;14.87;56.13;102178.53;5121177;27;45387;-45
2022/05/06 00:04:14;;;;;;;;;20.00;19.00;;;;;15.03;56.70;102194.06;5121312;27;45408;-51
2022/05/06 00:06:40;;;;;;;;;26.00;22.00;;;;;15.05;56.57;102200.16;5120903;27;46231;-53
2022/05/06 00:09:05;;;;;;;;;26.67;21.67;;;;;15.07;55.65;102195.47;5120854;27;45532;-51
2022/05/06 00:11:31;;;;;;;;;23.00;17.00;;;;;15.07;56.54;102192.81;5120140;27;45713;-48
2022/05/06 00:13:57;;;;;;;;;32.33;26.00;;;;;15.06;56.41;102193.78;5120941;27;45565;-53
2022/05/06 00:16:24;;;;;;;;;27.33;20.67;;;;;15.04;56.37;102197.59;5120419;27;46141;-44
2022/05/06 00:18:51;;;;;;;;;29.00;23.00;;;;;14.96;56.63;102190.28;5120741;27;45257;-51
2022/05/06 00:21:17;;;;;;;;;25.33;22.67;;;;;14.88;56.29;102190.13;5120562;27;45474;-49
2022/05/06 00:23:42;;;;;;;;;25.00;22.00;;;;;14.89;57.00;102194.50;5120775;27;45307;-54
2022/05/06 00:26:09;;;;;;;;;26.00;17.00;;;;;14.84;56.28;102192.25;5120442;27;46186;-51
2022/05/06 00:28:34;;;;;;;;;28.67;21.67;;;;;14.80;57.21;102193.50;5120586;27;45405;-40
2022/05/06 00:31:01;;;;;;;;;23.67;19.33;;;;;14.79;57.43;102201.66;5120588;27;45397;-45
2022/05/06 00:33:27;;;;;;;;;28.00;20.33;;;;;14.69;57.28;102188.25;5120691;27;45355;-54
2022/05/06 00:35:53;;;;;;;;;27.00;22.00;;;;;14.73;57.45;102201.22;5120136;27;46056;-43
2022/05/06 00:38:19;;;;;;;;;23.33;18.00;;;;;14.71;57.55;102200.53;5120433;27;45271;-55
2022/05/06 00:40:44;;;;;;;;;23.33;21.33;;;;;14.67;57.93;102198.28;5120400;27;45325;-53
2022/05/06 00:43:11;;;;;;;;;23.33;21.33;;;;;14.67;57.92;102196.44;5120788;27;45381;-52
2022/05/06 00:45:56;;;;;;;;;25.33;20.00;;;;;14.66;56.86;102194.75;5120100;27;45340;-45
2022/05/06 00:48:24;;;;;;;;;25.00;21.67;;;;;14.68;57.77;102205.31;5119898;27;45338;-51
2022/05/06 00:50:51;;;;;;;;;26.33;23.00;;;;;14.67;57.86;102192.91;5120322;27;45233;-46
2022/05/06 00:53:17;;;;;;;;;26.00;23.33;;;;;14.60;57.81;102181.91;5120420;27;45282;-53
2022/05/06 00:55:43;;;;;;;;;25.67;22.33;;;;;14.64;57.84;102190.50;5119929;27;46386;-45
2022/05/06 00:58:09;;;;;;;;;31.33;21.67;;;;;14.75;58.08;102203.78;5119922;27;45373;-41
2022/05/06 01:00:35;;;;;;;;;33.67;21.33;;;;;14.79;57.86;102204.34;5098168;27;45387;-43
2022/05/06 01:03:00;;;;;;;;;25.33;19.67;;;;;14.82;57.98;102196.03;5116217;27;45374;-47
2022/05/06 01:05:26;;;;;;;;;25.67;20.00;;;;;14.80;57.77;102190.81;5100892;27;45349;-42
2022/05/06 01:07:52;;;;;;;;;23.67;20.00;;;;;14.81;57.55;102188.97;5119802;27;45434;-45
2022/05/06 01:10:20;;;;;;;;;27.67;21.33;;;;;14.78;57.95;102191.94;5120138;27;45344;-41
2022/05/06 01:12:45;;;;;;;;;27.00;23.67;;;;;14.75;57.77;102192.19;5120069;27;45231;-53
2022/05/06 01:15:22;;;;;;;;;24.67;22.67;;;;;14.70;57.91;102188.09;5119491;27;45780;-49
2022/05/06 01:17:50;;;;;;;;;27.33;21.00;;;;;14.66;57.73;102189.41;5119789;27;45445;-52
2022/05/06 01:20:17;;;;;;;;;30.00;25.00;;;;;14.58;57.94;102175.84;5119826;27;45440;-48
2022/05/06 01:22:47;;;;;;;;;25.67;22.67;;;;;14.58;58.40;102178.53;5119825;27;45362;-40
2022/05/06 01:25:13;;;;;;;;;29.00;24.33;;;;;14.54;58.30;102187.81;5119612;27;46053;-50
2022/05/06 01:27:52;;;;;;;;;23.67;22.00;;;;;14.51;58.04;102185.41;5119595;27;45387;-48
2022/05/06 01:30:31;;;;;;;;;26.00;20.33;;;;;14.49;58.06;102182.00;5119631;27;45420;-46
2022/05/06 01:32:59;;;;;;;;;33.33;24.33;;;;;14.47;58.76;102187.47;5119881;27;45329;-50
2022/05/06 01:35:27;;;;;;;;;35.00;21.33;;;;;14.48;58.66;102185.63;5119242;27;45258;-50
2022/05/06 01:37:56;;;;;;;;;25.33;17.67;;;;;14.45;58.27;102193.94;5118055;27;45731;-51
2022/05/06 01:40:24;;;;;;;;;19.33;15.67;;;;;14.42;58.59;102192.41;5118380;27;45437;-48
2022/05/06 01:42:56;;;;;;;;;21.67;21.67;;;;;14.41;59.04;102193.38;5119572;27;45217;-47
2022/05/06 01:45:22;;;;;;;;;27.00;22.00;;;;;14.40;59.20;102190.81;5119035;27;45278;-44
2022/05/06 01:47:52;;;;;;;;;31.67;26.33;;;;;14.41;58.62;102193.38;5119239;27;45369;-42
2022/05/06 01:50:20;;;;;;;;;29.67;21.67;;;;;14.40;59.18;102188.16;5119336;27;45439;-51
2022/05/06 01:52:49;;;;;;;;;30.00;24.00;;;;;14.41;58.61;102187.16;5119315;27;45483;-42
2022/05/06 01:55:15;;;;;;;;;25.00;22.00;;;;;14.42;59.24;102187.03;5118954;27;47261;-48
2022/05/06 01:57:41;;;;;;;;;26.33;23.00;;;;;14.37;59.62;102186.63;5118550;27;45717;-48
2022/05/06 02:00:07;;;;;;;;;34.00;22.00;;;;;14.33;59.31;102177.16;5118586;27;45346;-48
2022/05/06 02:02:33;;;;;;;;;29.67;22.33;;;;;14.33;59.11;102192.38;5119524;27;45455;-41
2022/05/06 02:05:17;;;;;;;;;33.67;27.67;;;;;14.28;59.76;102187.41;5118950;27;45335;-51
2022/05/06 02:07:48;;;;;;;;;23.67;20.33;;;;;14.27;58.98;102190.22;5118851;27;45259;-52
2022/05/06 02:10:14;;;;;;;;;26.00;23.67;;;;;14.21;59.42;102197.81;5119062;27;45345;-48
2022/05/06 02:12:40;;;;;;;;;22.67;19.00;;;;;14.20;59.76;102198.81;5119182;27;45601;-39
2022/05/06 02:15:07;;;;;;;;;30.33;24.33;;;;;14.17;59.55;102193.72;5118830;27;45451;-51
2022/05/06 02:17:32;;;;;;;;;25.00;21.00;;;;;14.15;59.89;102197.50;5118698;27;45310;-52
2022/05/06 02:19:58;;;;;;;;;24.33;22.33;;;;;14.09;60.19;102187.34;5118869;27;45446;-49
2022/05/06 02:22:27;;;;;;;;;32.67;24.33;;;;;14.08;60.33;102193.69;5119121;27;45334;-41
2022/05/06 02:24:55;;;;;;;;;24.67;21.00;;;;;14.07;59.97;102190.13;5118679;27;45338;-47
2022/05/06 02:27:20;;;;;;;;;32.67;24.00;;;;;14.05;60.65;102205.50;5118713;27;45420;-53
2022/05/06 02:35:14;;;;;;;;;31.33;26.00;;;;;13.95;60.59;102191.22;5118601;27;45867;-53
2022/05/06 02:37:40;;;;;;;;;31.33;25.67;;;;;13.94;60.28;102197.53;5118169;27;45251;-50
2022/05/06 02:40:08;;;;;;;;;28.33;23.33;;;;;13.91;60.92;102190.66;5118590;27;45446;-53
2022/05/06 02:42:34;;;;;;;;;31.33;24.00;;;;;13.90;60.90;102196.13;5117618;27;45519;-54
2022/05/06 02:44:59;;;;;;;;;30.00;22.33;;;;;13.86;60.75;102189.34;5118886;27;46150;-51
2022/05/06 02:47:25;;;;;;;;;26.00;22.00;;;;;13.84;60.75;102192.16;5120319;27;45293;-54
2022/05/06 02:49:52;;;;;;;;;31.00;25.33;;;;;13.83;60.88;102184.28;5119072;27;45296;-50
2022/05/06 02:52:18;;;;;;;;;35.00;25.67;;;;;13.81;60.74;102186.22;5120060;27;45347;-53
2022/05/06 02:54:44;;;;;;;;;35.67;28.33;;;;;13.79;60.65;102188.19;5119000;27;45354;-47
2022/05/06 02:57:09;;;;;;;;;36.33;24.67;;;;;13.78;60.82;102189.16;5118375;27;45468;-52
2022/05/06 02:59:35;;;;;;;;;33.00;29.00;;;;;13.75;61.19;102190.28;5118869;27;45212;-48
2022/05/06 03:02:00;;;;;;;;;33.00;25.67;;;;;13.73;61.13;102192.22;5118946;27;45543;-54
2022/05/06 03:04:25;;;;;;;;;31.33;22.33;;;;;13.70;61.51;102190.69;5119133;27;45452;-52
2022/05/06 03:06:52;;;;;;;;;28.67;25.00;;;;;13.69;61.46;102193.47;5119075;27;45413;-54
2022/05/06 03:09:17;;;;;;;;;39.67;28.67;;;;;13.66;61.37;102197.25;5119060;27;45322;-51
2022/05/06 03:11:43;;;;;;;;;32.67;23.33;;;;;13.65;61.55;102200.03;5121394;27;45444;-54
2022/05/06 03:14:08;;;;;;;;;24.33;22.33;;;;;13.55;61.64;102186.63;5121822;27;47138;-51
2022/05/06 03:16:34;;;;;;;;;29.67;25.67;;;;;13.60;61.24;102196.94;5120624;27;45279;-54
2022/05/06 03:19:00;;;;;;;;;24.00;22.00;;;;;13.58;61.52;102197.06;5122220;27;45435;-54
2022/05/06 03:21:27;;;;;;;;;33.33;22.33;;;;;13.55;61.65;102196.47;5121872;27;45296;-53
2022/05/06 03:23:53;;;;;;;;;28.67;25.00;;;;;13.52;61.58;102184.22;5121579;27;46628;-48
2022/05/06 03:26:18;;;;;;;;;28.00;24.33;;;;;13.52;61.69;102194.06;5121410;27;45246;-51
2022/05/06 03:28:44;;;;;;;;;29.33;27.00;;;;;13.50;62.25;102193.34;5121714;27;45433;-50
2022/05/06 03:31:13;;;;;;;;;31.33;25.00;;;;;13.48;61.79;102197.00;5121948;27;45371;-54
2022/05/06 03:33:41;;;;;;;;;33.33;25.33;;;;;13.48;62.20;102202.34;5121435;27;47297;-51
2022/05/06 03:36:09;;;;;;;;;26.33;24.67;;;;;13.48;62.67;102201.47;5137181;27;45693;-55
2022/05/06 03:38:34;;;;;;;;;28.00;24.00;;;;;13.47;62.70;102207.81;5121369;27;45216;-54
2022/05/06 03:41:00;;;;;;;;;32.00;21.33;;;;;13.44;62.44;102200.91;5121480;27;45366;-53
2022/05/06 03:43:27;;;;;;;;;28.00;25.67;;;;;13.44;62.71;102206.28;5121379;27;46151;-53
2022/05/06 03:45:52;;;;;;;;;29.67;23.67;;;;;13.44;62.27;102200.91;5121446;27;45393;-53
2022/05/06 03:48:21;;;;;;;;;27.00;23.00;;;;;13.43;62.22;102198.34;5120920;27;45276;-52
2022/05/06 03:53:30;;;;;;;;;31.33;28.67;;;;;13.40;62.45;102202.16;5121208;27;45715;-54
2022/05/06 03:55:55;;;;;;;;;30.33;24.00;;;;;13.40;62.45;102198.59;5120882;27;45459;-54
2022/05/06 03:58:20;;;;;;;;;26.33;20.00;;;;;13.38;62.62;102198.75;5121393;27;45318;-54
2022/05/06 04:00:46;;;;;;;;;29.00;24.00;;;;;13.31;62.92;102194.03;5120666;27;45145;-53
2022/05/06 04:03:11;;;;;;;;;38.00;25.67;;;;;13.37;62.76;102209.59;5121112;27;45448;-52
2022/05/06 04:05:37;;;;;;;;;32.67;26.00;;;;;13.33;63.03;102205.47;5120899;27;45406;-51
2022/05/06 04:08:03;;;;;;;;;35.25;26.00;;;;;13.22;62.92;102185.81;5120967;27;45264;-53
2022/05/06 04:10:29;;;;;;;;;26.67;23.33;;;;;13.35;63.13;102212.38;5120945;27;45254;-55
2022/05/06 04:12:54;;;;;;;;;31.50;28.00;;;;;13.35;62.69;102209.69;5120848;27;46017;-50
2022/05/06 04:15:21;;;;;;;;;31.00;28.33;;;;;13.34;63.36;102209.84;5120806;27;45284;-55
2022/05/06 04:17:46;;;;;;;;;28.00;25.67;;;;;13.34;63.28;102212.50;5120982;27;45345;-54
2022/05/06 04:25:41;;;;;;;;;30.33;28.33;;;;;13.35;62.76;102217.72;5120631;27;45370;-52
2022/05/06 04:28:07;;;;;;;;;34.00;24.00;;;;;13.18;63.44;102200.38;5120656;27;45420;-49
2022/05/06 04:30:32;;;;;;;;;33.33;27.00;;;;;13.34;62.86;102220.53;5102431;27;45371;-47
2022/05/06 04:32:58;;;;;;;;;35.67;25.00;;;;;13.24;63.19;102201.75;5120637;27;46158;-49
2022/05/06 04:35:24;;;;;;;;;28.00;25.33;;;;;13.34;63.78;102220.53;5120635;27;45417;-46
2022/05/06 04:37:49;;;;;;;;;35.67;26.00;;;;;13.33;62.87;102225.03;5120470;27;45374;-43
2022/05/06 04:40:15;;;;;;;;;29.67;26.00;;;;;13.34;63.40;102232.06;5120730;27;45333;-54
2022/05/06 04:42:41;;;;;;;;;31.67;26.67;;;;;13.35;63.16;102233.75;5119502;27;45367;-51
2022/05/06 04:45:07;;;;;;;;;32.67;28.33;;;;;13.35;63.24;102228.41;5120460;27;45360;-53
2022/05/06 04:47:34;;;;;;;;;34.67;24.00;;;;;13.35;63.09;102233.75;5120561;27;45229;-41
2022/05/06 04:49:59;;;;;;;;;37.67;26.33;;;;;13.35;62.95;102230.22;5120710;27;45286;-53
2022/05/06 04:52:25;;;;;;;;;33.33;25.33;;;;;13.38;63.29;102235.31;5120249;27;45308;-42
2022/05/06 04:54:50;;;;;;;;;32.67;28.67;;;;;13.40;62.77;102236.91;5120195;27;45241;-42
2022/05/06 04:57:16;;;;;;;;;41.33;30.33;;;;;13.41;63.38;102241.28;5120174;27;45769;-51
2022/05/06 04:59:41;;;;;;;;;33.33;27.33;;;;;13.44;63.02;102245.50;5120158;27;45462;-51
2022/05/06 05:02:07;;;;;;;;;41.25;31.50;;;;;13.42;62.67;102236.75;5119788;27;46928;-55
2022/05/06 05:04:33;;;;;;;;;27.67;25.33;;;;;13.46;62.61;102247.06;5120158;27;45388;-51
2022/05/06 05:06:58;;;;;;;;;32.67;29.67;;;;;13.50;62.41;102252.16;5120283;27;45346;-55
2022/05/06 05:09:23;;;;;;;;;40.33;29.67;;;;;13.50;62.96;102252.16;5120450;27;45294;-52
2022/05/06 05:11:49;;;;;;;;;37.33;25.33;;;;;13.52;62.65;102251.03;5120078;27;46251;-52
2022/05/06 05:14:14;;;;;;;;;35.67;30.00;;;;;13.55;63.00;102253.47;5119852;27;45293;-53
2022/05/06 05:16:39;;;;;;;;;32.67;30.67;;;;;13.55;62.80;102250.78;5119860;27;45423;-54
2022/05/06 05:19:05;;;;;;;;;39.33;31.00;;;;;13.61;62.63;102252.97;5120071;27;45288;-52
2022/05/06 05:21:30;;;;;;;;;41.75;32.75;;;;;13.53;62.64;102238.56;5119965;27;45421;-52
2022/05/06 05:23:55;;;;;;;;;33.00;28.00;;;;;13.64;62.81;102250.00;5119324;27;45353;-55
2022/05/06 05:26:21;;;;;;;;;42.00;30.33;;;;;13.63;62.37;102242.97;5119820;27;45239;-55
2022/05/06 05:28:46;;;;;;;;;31.67;26.67;;;;;13.67;62.36;102254.25;5118904;27;45487;-55
2022/05/06 05:31:11;;;;;;;;;39.67;28.33;;;;;13.71;62.40;102256.53;5119483;27;47525;-53
2022/05/06 05:33:37;;;;;;;;;35.00;27.67;;;;;13.74;62.88;102260.78;5118102;27;45404;-51
2022/05/06 05:36:02;;;;;;;;;41.00;31.67;;;;;13.78;62.67;102258.69;5119818;27;45377;-52
2022/05/06 05:38:28;;;;;;;;;42.50;31.50;;;;;13.82;62.16;102262.78;5120077;27;45339;-51
2022/05/06 05:40:53;;;;;;;;;39.00;28.67;;;;;13.84;62.04;102261.69;5119368;27;45454;-45
2022/05/06 05:48:46;;;;;;;;;37.67;28.67;;;;;13.96;61.91;102263.31;5119511;27;45338;-50
2022/05/06 05:51:12;;;;;;;;;38.67;32.00;;;;;14.01;62.11;102267.44;5119173;27;46225;-50
2022/05/06 05:53:38;;;;;;;;;35.33;29.00;;;;;14.08;62.04;102271.28;5100389;27;45293;-56
2022/05/06 05:56:04;;;;;;;;;41.00;29.67;;;;;14.06;61.57;102263.38;5119083;27;45471;-52
2022/05/06 05:58:30;;;;;;;;;36.33;29.67;;;;;14.18;61.83;102274.84;5119158;27;45544;-46
2022/05/06 06:00:55;;;;;;;;;43.00;31.33;;;;;14.18;61.55;102269.50;5118907;27;47004;-53
2022/05/06 06:03:20;;;;;;;;;41.33;36.00;;;;;14.26;61.23;102267.00;5119293;27;45346;-48
2022/05/06 06:05:46;;;;;;;;;47.33;34.67;;;;;14.32;61.33;102270.97;5119159;27;45348;-50
2022/05/06 06:08:11;;;;;;;;;34.67;31.00;;;;;14.37;61.28;102258.91;5119358;27;45312;-52
2022/05/06 06:10:37;;;;;;;;;41.75;34.50;;;;;14.43;61.06;102262.84;5118648;27;46067;-51
2022/05/06 06:13:04;;;;;;;;;41.67;28.33;;;;;14.48;61.08;102252.56;5118734;27;45361;-52
2022/05/06 06:15:30;;;;;;;;;40.67;32.33;;;;;14.54;60.70;102254.75;5119089;27;45381;-46
2022/05/06 06:17:55;;;;;;;;;39.67;31.67;;;;;14.58;60.64;102253.50;5118952;27;45393;-54
2022/05/06 06:20:21;;;;;;;;;35.33;33.33;;;;;14.65;60.56;102257.31;5118727;27;46033;-43
2022/05/06 06:22:47;;;;;;;;;39.00;31.33;;;;;14.72;60.46;102252.28;5118755;27;45259;-44
2022/05/06 06:25:12;;;;;;;;;37.00;27.33;;;;;14.77;60.46;102258.06;5118724;27;45311;-50
2022/05/06 06:27:37;;;;;;;;;39.25;32.75;;;;;14.84;60.29;102269.09;5119231;27;45458;-44
2022/05/06 06:30:04;;;;;;;;;41.33;33.00;;;;;14.90;60.24;102261.31;5118645;27;45373;-49
2022/05/06 06:32:29;;;;;;;;;37.00;31.67;;;;;14.99;59.83;102265.00;5118915;27;45402;-55
2022/05/06 06:34:55;;;;;;;;;48.33;30.33;;;;;15.07;59.76;102264.31;5118843;27;45381;-49
2022/05/06 06:37:21;;;;;;;;;37.67;29.67;;;;;15.16;59.44;102266.16;5118936;27;45349;-47
2022/05/06 06:39:47;;;;;;;;;28.00;28.00;;;;;15.23;59.16;102273.50;5118777;27;46586;-52
2022/05/06 06:42:13;;;;;;;;;37.00;33.00;;;;;15.33;59.02;102268.16;5118194;27;45411;-45
2022/05/06 06:44:38;;;;;;;;;42.67;30.00;;;;;15.43;58.90;102282.41;5118529;27;45321;-50
2022/05/06 06:47:10;;;;;;;;;40.00;31.67;;;;;15.53;58.45;102271.69;5118840;27;45420;-52
2022/05/06 06:49:36;;;;;;;;;36.00;31.00;;;;;15.69;58.10;102268.47;5118305;27;46108;-48
2022/05/06 06:52:02;;;;;;;;;42.00;33.33;;;;;15.86;57.67;102273.09;5118556;27;45385;-54
2022/05/06 06:54:28;;;;;;;;;50.33;35.00;;;;;16.12;56.79;102267.94;5118472;27;45504;-47
2022/05/06 06:56:53;;;;;;;;;38.67;31.33;;;;;16.54;56.26;102270.19;5116961;27;45514;-50
2022/05/06 06:59:19;;;;;;;;;35.67;32.00;;;;;17.15;55.03;102258.84;5118335;27;45389;-52
2022/05/06 07:01:44;;;;;;;;;33.33;30.33;;;;;17.98;52.48;102260.38;5118273;27;45512;-51
2022/05/06 07:04:10;;;;;;;;;40.00;32.00;;;;;18.65;50.79;102256.84;5118624;27;45327;-52
2022/05/06 07:12:03;;;;;;;;;35.33;29.67;;;;;20.42;47.06;102255.38;5117824;27;45409;-50
2022/05/06 07:14:29;;;;;;;;;32.67;29.67;;;;;21.04;44.88;102257.28;5118195;27;45325;-44
2022/05/06 07:16:55;;;;;;;;;37.00;31.67;;;;;21.59;43.62;102256.22;5118364;27;45575;-43
2022/05/06 07:19:21;;;;;;;;;36.67;30.00;;;;;22.15;43.01;102261.28;5117356;27;45382;-55
2022/05/06 07:21:50;;;;;;;;;29.67;27.67;;;;;22.72;41.66;102257.88;5117744;27;45381;-52
2022/05/06 07:24:16;;;;;;;;;30.00;25.67;;;;;23.29;40.32;102261.66;5117911;27;45398;-48
2022/05/06 07:26:41;;;;;;;;;37.33;30.67;;;;;23.90;39.67;102264.72;5118053;27;45330;-53
2022/05/06 07:29:07;;;;;;;;;29.00;23.00;;;;;24.84;40.52;102256.03;5117871;27;45370;-50
2022/05/06 07:31:32;;;;;;;;;34.67;29.33;;;;;26.23;37.13;102260.72;5099349;27;45386;-40
2022/05/06 07:33:57;;;;;;;;;35.67;29.33;;;;;27.87;33.69;102256.44;5117986;27;45393;-51
2022/05/06 07:36:23;;;;;;;;;25.75;23.50;;;;;29.19;31.43;102257.56;5117978;27;45301;-54
2022/05/06 07:38:49;;;;;;;;;24.75;23.25;;;;;30.41;29.58;102251.41;5117750;27;46091;-46
2022/05/06 07:41:15;;;;;;;;;24.50;20.25;;;;;31.28;27.64;102262.19;5117659;27;45488;-55
2022/05/06 07:43:40;;;;;;;;;25.25;21.00;;;;;32.18;25.60;102260.28;5118021;27;45659;-48
2022/05/06 07:46:09;;;;;;;;;26.50;23.25;;;;;33.00;25.54;102262.13;5117963;27;45421;-55
2022/05/06 07:48:34;;;;;;;;;21.75;19.25;;;;;33.74;25.60;102258.59;5117763;27;45236;-45
2022/05/06 07:51:00;;;;;;;;;28.25;25.00;;;;;34.46;22.96;102259.81;5118034;27;45297;-54
2022/05/06 07:53:25;;;;;;;;;24.00;15.75;;;;;35.19;22.29;102258.94;5117907;27;45341;-39
2022/05/06 07:55:51;;;;;;;;;19.25;18.75;;;;;35.78;21.13;102250.03;5117758;27;45382;-40
2022/05/06 07:58:16;;;;;;;;;25.75;21.75;;;;;36.28;21.28;102252.94;5120604;27;46072;-53
2022/05/06 08:00:43;;;;;;;;;21.50;18.50;;;;;36.74;21.44;102250.75;5121022;27;45459;-53
2022/05/06 08:05:56;;;;;;;;;18.20;17.40;;;;;37.95;20.17;102241.72;5121410;27;45365;-55
2022/05/06 08:08:23;;;;;;;;;18.80;16.80;;;;;38.55;18.99;102238.44;5102371;27;46604;-54
2022/05/06 08:10:49;;;;;;;;;18.40;17.80;;;;;38.99;18.41;102253.94;5120896;27;45275;-45
2022/05/06 08:13:14;;;;;;;;;21.25;17.25;;;;;39.52;19.74;102256.38;5121086;27;45256;-47
2022/05/06 08:15:40;;;;;;;;;16.25;13.25;;;;;39.69;17.77;102251.06;5121101;27;45236;-42
2022/05/06 08:18:05;;;;;;;;;15.00;14.50;;;;;39.92;18.18;102249.25;5120469;27;46077;-49
2022/05/06 08:20:31;;;;;;;;;15.50;13.75;;;;;40.25;17.18;102258.34;5120581;27;45218;-46
2022/05/06 08:22:56;;;;;;;;;13.25;12.00;;;;;40.56;18.58;102252.09;5120832;27;45225;-45
2022/05/06 08:25:21;;;;;;;;;16.00;14.50;;;;;40.80;16.71;102249.03;5121095;27;45360;-51
2022/05/06 08:27:48;;;;;;;;;13.40;13.00;;;;;41.07;16.72;102253.69;5120512;27;46072;-55
2022/05/06 08:30:13;;;;;;;;;12.50;12.00;;;;;41.34;16.08;102241.50;5120672;27;45429;-44
2022/05/06 08:32:40;;;;;;;;;15.00;12.75;;;;;41.84;15.94;102246.91;5120674;27;45338;-50
2022/05/06 08:35:07;;;;;;;;;18.80;15.20;;;;;42.29;15.24;102241.94;5120726;27;45423;-54
2022/05/06 08:37:44;;;;;;;;;13.80;11.00;;;;;42.58;15.50;102246.09;5120386;27;46266;-46
2022/05/06 08:40:16;;;;;;;;;15.80;13.20;;;;;42.67;15.77;102246.13;5120187;27;45362;-52
2022/05/06 08:42:41;;;;;;;;;10.40;9.60;;;;;42.81;14.77;102239.19;5120324;27;45317;-54
2022/05/06 08:50:52;;;;;;;;;10.00;9.00;;;;;44.35;13.26;102239.31;5120556;27;45426;-55
2022/05/06 08:53:23;;;;;;;;;10.00;9.00;;;;;44.72;14.83;102246.81;5120465;27;45449;-47
2022/05/06 08:55:53;;;;;;;;;9.00;7.40;;;;;44.67;13.79;102244.22;5120657;27;45599;-45
2022/05/06 08:58:20;;;;;;;;;7.00;7.00;;;;;44.65;14.05;102240.91;5119880;27;45364;-53
2022/05/06 09:00:46;;;;;;;;;9.00;8.00;;;;;44.80;13.63;102245.91;5120324;27;45357;-44
2022/05/06 09:03:14;;;;;;;;;8.50;8.50;;;;;44.98;13.13;102246.53;5120267;27;45381;-47
2022/05/06 09:05:54;;;;;;;;;10.80;9.00;;;;;45.09;14.17;102246.13;5120349;27;45426;-43
2022/05/06 09:08:20;;;;;;;;;13.20;11.80;;;;;45.02;14.43;102241.88;5120076;27;45397;-41
2022/05/06 09:11:07;;;;;;;;;8.00;8.00;;;;;45.10;16.40;102240.19;5119985;27;45346;-41
2022/05/06 09:13:51;;;;;;;;;9.60;8.40;;;;;45.22;14.60;102231.78;5119929;27;45323;-42
2022/05/06 09:16:42;;;;;;;;;5.60;5.60;;;;;45.28;12.40;102240.78;5120096;27;45571;-53
2022/05/06 09:19:27;;;;;;;;;6.20;6.20;;;;;45.23;13.35;102238.22;5119805;27;45437;-48
2022/05/06 09:22:14;;;;;;;;;9.00;7.80;;;;;45.30;12.03;102239.28;5119816;27;45334;-43
2022/05/06 09:24:47;;;;;;;;;8.80;7.40;;;;;45.50;12.44;102233.94;5119893;27;45524;-50
2022/05/06 09:27:21;;;;;;;;;6.80;3.00;;;;;45.61;13.13;102217.44;5119861;27;45307;-48
2022/05/06 09:29:51;;;;;;;;;6.00;6.00;;;;;45.94;13.06;102225.78;5119774;27;46368;-54
2022/05/06 09:32:19;;;;;;;;;7.80;6.80;;;;;46.17;12.35;102226.88;5119755;27;45270;-42
2022/05/06 09:34:47;;;;;;;;;7.40;6.80;;;;;46.75;12.53;102227.44;5119939;27;45282;-50
2022/05/06 09:37:38;;;;;;;;;7.00;5.20;;;;;46.95;11.86;102222.81;5119967;27;45371;-54
2022/05/06 09:40:07;;;;;;;;;7.20;6.00;;;;;47.18;11.07;102219.38;5119624;27;45418;-45
2022/05/06 09:42:37;;;;;;;;;8.00;5.80;;;;;47.37;11.64;102210.22;5119021;27;45467;-53
2022/05/06 09:45:03;;;;;;;;;5.40;5.40;;;;;47.77;10.71;102214.84;5119805;27;45511;-49
2022/05/06 09:47:30;;;;;;;;;7.80;6.40;;;;;48.21;10.61;102212.63;5119828;27;45533;-49
2022/05/06 09:49:56;;;;;;;;;7.00;7.00;;;;;48.44;10.68;102209.94;5119336;27;46549;-45
2022/05/06 09:52:21;;;;;;;;;7.75;7.50;;;;;48.73;10.09;102211.31;5118853;27;45328;-48
2022/05/06 09:54:48;;;;;;;;;7.00;7.00;;;;;48.76;10.80;102209.75;5119628;27;45377;-43
2022/05/06 09:57:16;;;;;;;;;7.00;7.00;;;;;48.91;10.09;102203.19;5119151;27;45256;-44
2022/05/06 09:59:41;;;;;;;;;6.80;5.60;;;;;49.11;9.72;102204.81;5118605;27;46496;-47
2022/05/06 10:02:08;;;;;;;;;5.25;5.25;;;;;49.35;10.01;102205.59;5119252;27;45422;-45
2022/05/06 10:04:38;;;;;;;;;7.00;7.00;;;;;49.47;9.72;102201.78;5119114;27;45310;-49
2022/05/06 10:07:14;;;;;;;;;6.60;6.60;;;;;49.70;10.61;102206.19;5119523;27;45462;-53
2022/05/06 10:09:48;;;;;;;;;7.60;6.00;;;;;49.65;9.56;102209.34;5118414;27;45362;-43
2022/05/06 10:12:17;;;;;;;;;7.40;6.40;;;;;49.73;9.76;102206.59;5118920;27;45479;-50
2022/05/06 10:14:44;;;;;;;;;11.00;8.20;;;;;49.66;10.33;102205.31;5119204;27;45877;-44
2022/05/06 10:17:09;;;;;;;;;7.20;6.20;;;;;49.43;9.51;102208.19;5119234;27;45627;-54
2022/05/06 10:19:37;;;;;;;;;9.75;7.50;;;;;49.41;10.79;102212.56;5118185;27;46139;-53
2022/05/06 10:22:03;;;;;;;;;8.00;7.00;;;;;49.48;10.22;102209.91;5118846;27;45248;-51
2022/05/06 10:24:49;;;;;;;;;6.80;6.80;;;;;49.45;10.38;102200.13;5118953;27;45401;-52
2022/05/06 10:33:12;;;;;;;;;5.80;5.60;;;;;49.29;10.55;102205.09;5118886;27;45346;-42
2022/05/06 10:35:46;;;;;;;;;8.50;8.50;;;;;48.87;10.17;102180.53;5118779;27;45789;-51
2022/05/06 10:38:26;;;;;;;;;7.40;7.00;;;;;49.01;10.50;102188.44;5118921;27;45373;-50
2022/05/06 10:40:56;;;;;;;;;9.40;8.20;;;;;48.81;9.92;102193.34;5118530;27;46415;-49
2022/05/06 10:43:46;;;;;;;;;9.00;8.00;;;;;48.62;10.14;102191.31;5118517;27;45329;-44
2022/05/06 10:46:29;;;;;;;;;8.00;8.00;;;;;48.26;10.96;102186.16;5118669;27;46095;-52
2022/05/06 10:48:55;;;;;;;;;7.00;7.00;;;;;48.01;11.07;102183.56;5118837;27;45332;-41
2022/05/06 10:51:22;;;;;;;;;8.00;8.00;;;;;47.53;11.48;102182.81;5118448;27;46891;-51
2022/05/06 10:53:48;;;;;;;;;7.20;6.20;;;;;47.30;10.12;102176.19;5118576;27;45296;-55
2022/05/06 10:56:14;;;;;;;;;8.00;7.25;;;;;47.18;10.65;102175.09;5118564;27;45286;-47
2022/05/06 10:58:40;;;;;;;;;9.60;7.20;;;;;46.75;11.37;102171.13;5118256;27;45513;-43
2022/05/06 11:01:06;;;;;;;;;6.40;6.40;;;;;46.33;11.82;102169.91;5118599;27;45263;-47
2022/05/06 11:03:31;;;;;;;;;8.00;5.50;;;;;46.14;11.54;102157.25;5117903;27;45395;-49
2022/05/06 11:05:57;;;;;;;;;9.75;8.00;;;;;46.07;11.28;102171.13;5118616;27;45258;-48
2022/05/06 11:08:34;;;;;;;;;6.00;6.00;;;;;46.09;11.96;102160.31;5100047;27;45455;-50
2022/05/06 11:11:01;;;;;;;;;6.80;6.80;;;;;46.15;10.87;102158.91;5118072;27;45342;-42
2022/05/06 11:13:26;;;;;;;;;9.20;8.80;;;;;44.99;12.01;102165.91;5118151;27;45511;-49
2022/05/06 11:15:52;;;;;;;;;7.25;7.25;;;;;44.98;11.96;102158.66;5118245;27;45337;-50
2022/05/06 11:18:19;;;;;;;;;7.40;6.40;;;;;44.68;12.13;102161.63;5118365;27;45439;-53
2022/05/06 11:20:44;;;;;;;;;10.00;8.80;;;;;44.16;12.42;102166.81;5099524;27;46314;-53
2022/05/06 11:23:16;;;;;;;;;7.25;7.00;;;;;43.25;12.86;102144.75;5118145;27;45370;-48
2022/05/06 11:25:50;;;;;;;;;9.60;8.00;;;;;41.08;13.82;102158.44;5118169;27;45334;-44
2022/05/06 11:28:25;;;;;;;;;7.20;7.20;;;;;38.59;15.93;102156.06;5118319;27;45442;-54
2022/05/06 11:30:52;;;;;;;;;7.40;6.20;;;;;37.40;16.49;102157.88;5099620;27;47182;-52
2022/05/06 11:33:31;;;;;;;;;7.20;6.00;;;;;35.69;18.04;102158.44;5121151;27;46204;-39
2022/05/06 11:36:02;;;;;;;;;8.00;8.00;;;;;34.24;18.70;102148.69;5121709;27;45278;-55
2022/05/06 11:38:31;;;;;;;;;8.40;8.20;;;;;32.98;19.87;102147.69;5121761;27;45817;-52
2022/05/06 11:41:08;;;;;;;;;8.00;8.00;;;;;31.91;20.76;102138.25;5121580;27;46166;-49
2022/05/06 11:43:34;;;;;;;;;6.80;6.80;;;;;31.22;22.31;102138.59;5121234;27;45339;-55
2022/05/06 11:48:45;;;;;;;;;4.00;4.00;;;;;30.08;22.88;102154.06;5121745;27;45479;-49
2022/05/06 11:51:14;;;;;;;;;10.00;9.20;;;;;29.48;23.36;102145.31;5121345;27;46214;-51
2022/05/06 11:53:42;;;;;;;;;6.80;6.80;;;;;28.96;23.98;102154.25;5121422;27;45226;-55
2022/05/06 11:56:09;;;;;;;;;9.00;8.40;;;;;28.70;24.91;102141.75;5121548;27;45580;-54
2022/05/06 11:58:36;;;;;;;;;5.80;5.40;;;;;28.47;25.50;102147.97;5121296;27;45357;-54